Time;durP1;ratioP1;P1;durP2;ratioP2;P2;SDS_P1;SDS_P2;PMS_P1;PMS_P2;Temp;Humidity;BMP_temperature;BMP_pressure;BME280_temperature;BME280_humidity;BME280_pressure;Samples;Min_cycle;Max_cycle;Signal;HPM_P1;HPM_P2
2021/06/23 00:02:24;;;;;;;;;17.75;17.75;;;;;18.70;100.00;100766.03;3724034;37;21327;-60
2021/06/23 00:04:51;;;;;;;;;16.25;16.25;;;;;18.65;100.00;100768.63;3724396;37;21322;-59
2021/06/23 00:07:18;;;;;;;;;17.00;16.00;;;;;18.63;100.00;100765.28;3724632;38;21284;-60
2021/06/23 00:09:44;;;;;;;;;18.25;17.50;;;;;18.62;100.00;100765.53;3724631;37;21295;-60
2021/06/23 00:12:16;;;;;;;;;15.50;15.00;;;;;18.68;100.00;100765.44;3724577;37;21466;-59
2021/06/23 00:14:43;;;;;;;;;17.50;17.00;;;;;18.68;100.00;100764.59;3724701;38;21379;-59
2021/06/23 00:17:09;;;;;;;;;16.75;16.50;;;;;18.67;100.00;100769.25;3724608;38;21415;-58
2021/06/23 00:19:36;;;;;;;;;14.00;13.00;;;;;18.64;100.00;100769.72;3724462;38;21360;-59
2021/06/23 00:22:03;;;;;;;;;14.00;14.00;;;;;18.69;100.00;100772.59;3724511;37;21384;-60
2021/06/23 00:24:29;;;;;;;;;17.00;17.00;;;;;18.59;100.00;100766.78;3724634;38;21344;-60
2021/06/23 00:26:56;;;;;;;;;15.00;14.50;;;;;18.54;100.00;100758.41;3724692;38;21294;-61
2021/06/23 00:29:22;;;;;;;;;16.25;16.25;;;;;18.55;100.00;100764.75;3724538;38;21376;-61
2021/06/23 00:31:50;;;;;;;;;16.75;16.00;;;;;18.48;100.00;100753.84;3724474;38;21358;-61
2021/06/23 00:34:22;;;;;;;;;15.00;15.00;;;;;18.48;100.00;100771.12;3724150;38;21242;-61
2021/06/23 00:36:49;;;;;;;;;20.25;20.25;;;;;18.47;100.00;100760.41;3724530;38;21265;-61
2021/06/23 00:39:15;;;;;;;;;20.50;19.25;;;;;18.47;100.00;100752.19;3724507;38;21245;-61
2021/06/23 00:41:43;;;;;;;;;19.75;19.50;;;;;18.53;100.00;100757.59;3724508;38;21257;-61
2021/06/23 00:44:13;;;;;;;;;18.75;18.25;;;;;18.52;100.00;100744.94;3724403;38;21258;-60
2021/06/23 00:46:43;;;;;;;;;20.00;20.00;;;;;18.45;100.00;100749.66;3724172;37;21255;-61
2021/06/23 00:49:12;;;;;;;;;22.75;22.00;;;;;18.45;100.00;100751.56;3724579;37;21222;-61
2021/06/23 00:51:39;;;;;;;;;18.75;17.75;;;;;18.41;100.00;100745.72;3724713;37;21240;-61
2021/06/23 00:54:11;;;;;;;;;22.25;19.75;;;;;18.41;100.00;100747.62;3724469;38;21215;-61
2021/06/23 00:56:39;;;;;;;;;21.25;20.75;;;;;18.33;100.00;100747.94;3724653;37;21254;-61
2021/06/23 00:59:11;;;;;;;;;21.25;19.75;;;;;18.22;100.00;100748.69;3724829;38;21247;-61
2021/06/23 01:01:41;;;;;;;;;20.00;17.50;;;;;18.18;100.00;100754.66;3724324;37;21235;-61
2021/06/23 01:04:09;;;;;;;;;20.75;18.50;;;;;18.18;100.00;100753.81;3724321;38;21213;-60
2021/06/23 01:06:36;;;;;;;;;21.50;21.50;;;;;18.23;100.00;100753.13;3724697;37;21221;-61
2021/06/23 01:09:04;;;;;;;;;21.00;21.00;;;;;18.27;100.00;100749.69;3724510;38;21236;-60
2021/06/23 01:11:31;;;;;;;;;19.75;18.00;;;;;18.30;100.00;100743.75;3724546;37;21202;-61
2021/06/23 01:14:03;;;;;;;;;22.00;21.00;;;;;18.29;100.00;100742.06;3724536;37;21215;-59
2021/06/23 01:16:33;;;;;;;;;22.25;20.75;;;;;18.28;100.00;100742.31;3724567;38;21191;-60
2021/06/23 01:19:01;;;;;;;;;23.00;21.25;;;;;18.28;100.00;100740.41;3724525;37;21197;-61
2021/06/23 01:21:29;;;;;;;;;22.00;21.50;;;;;18.33;100.00;100745.19;3724496;38;21180;-60
2021/06/23 01:23:55;;;;;;;;;20.75;20.50;;;;;18.31;100.00;100747.31;3724580;38;21200;-60
2021/06/23 01:26:22;;;;;;;;;23.75;23.25;;;;;18.21;100.00;100742.37;3724584;38;21189;-61
2021/06/23 01:28:48;;;;;;;;;20.50;20.00;;;;;18.15;100.00;100744.16;3724532;38;21210;-61
2021/06/23 01:31:18;;;;;;;;;20.50;20.00;;;;;18.10;100.00;100746.75;3724678;37;21189;-60
2021/06/23 01:33:48;;;;;;;;;23.50;23.00;;;;;18.03;100.00;100740.50;3724263;38;21171;-61
2021/06/23 01:36:15;;;;;;;;;19.00;19.00;;;;;18.03;100.00;100742.41;3724114;37;21155;-60
2021/06/23 01:38:41;;;;;;;;;23.00;23.00;;;;;17.98;100.00;100740.34;3724475;37;21184;-60
2021/06/23 01:41:10;;;;;;;;;22.50;22.25;;;;;17.95;100.00;100743.53;3724275;38;21150;-61
2021/06/23 01:43:39;;;;;;;;;18.25;18.25;;;;;17.90;100.00;100739.81;3724382;37;21168;-61
2021/06/23 01:46:05;;;;;;;;;15.50;15.50;;;;;17.86;100.00;100739.44;3724538;38;21144;-61
2021/06/23 01:48:34;;;;;;;;;21.00;19.50;;;;;17.88;100.00;100731.81;3724587;37;21164;-60
2021/06/23 01:51:03;;;;;;;;;18.50;17.50;;;;;17.79;100.00;100734.03;3724420;37;21161;-61
2021/06/23 01:53:34;;;;;;;;;22.50;19.50;;;;;17.80;100.00;100745.81;3724631;37;21175;-61
2021/06/23 01:56:02;;;;;;;;;20.00;20.00;;;;;17.82;100.00;100736.31;3724640;38;21132;-61
2021/06/23 01:58:29;;;;;;;;;20.25;19.00;;;;;17.83;100.00;100746.19;3724424;37;21147;-60
2021/06/23 02:01:40;;;;;;;;;18.50;17.50;;;;;17.76;100.00;100753.62;3724706;38;21243;-61
2021/06/23 02:04:30;;;;;;;;;17.75;16.25;;;;;17.76;100.00;100747.31;3724727;37;21117;-61
2021/06/23 02:07:25;;;;;;;;;17.50;17.00;;;;;17.72;100.00;100754.31;3724825;38;21147;-60
2021/06/23 02:10:29;;;;;;;;;14.25;14.25;;;;;17.65;100.00;100751.66;3724767;38;21147;-61
2021/06/23 02:13:49;;;;;;;;;17.25;17.25;;;;;17.74;100.00;100757.66;3724817;38;21103;-61
2021/06/23 02:16:17;;;;;;;;;19.00;19.00;;;;;17.71;100.00;100760.84;3724753;37;21126;-61
2021/06/23 02:18:44;;;;;;;;;15.00;13.75;;;;;17.62;100.00;100760.28;3724759;38;21121;-61
2021/06/23 02:21:11;;;;;;;;;16.00;16.00;;;;;17.53;100.00;100757.00;3724729;37;21126;-61
2021/06/23 02:23:42;;;;;;;;;15.50;15.00;;;;;17.53;100.00;100762.47;3724692;37;21203;-59
2021/06/23 02:26:15;;;;;;;;;16.75;16.75;;;;;17.44;100.00;100762.97;3724670;38;21223;-61
2021/06/23 02:28:43;;;;;;;;;16.25;16.25;;;;;17.47;100.00;100762.53;3724230;38;21183;-61
2021/06/23 02:31:11;;;;;;;;;12.25;12.25;;;;;17.48;100.00;100773.25;3724293;37;21194;-61
2021/06/23 02:33:40;;;;;;;;;19.00;18.00;;;;;17.49;100.00;100774.09;3724805;38;21067;-61
2021/06/23 02:36:07;;;;;;;;;15.00;14.75;;;;;17.51;100.00;100774.72;3724781;37;21184;-61
2021/06/23 02:38:35;;;;;;;;;17.25;17.25;;;;;17.57;100.00;100767.50;3724643;38;21209;-61
2021/06/23 02:41:02;;;;;;;;;15.00;15.00;;;;;17.55;100.00;100773.19;3724375;37;21116;-61
2021/06/23 02:43:29;;;;;;;;;18.50;17.75;;;;;17.51;100.00;100775.53;3724632;37;21183;-61
2021/06/23 02:45:57;;;;;;;;;14.50;14.50;;;;;17.49;100.00;100779.56;3724698;37;21096;-61
2021/06/23 02:48:26;;;;;;;;;15.00;15.00;;;;;17.44;100.00;100785.72;3724599;37;21170;-60
2021/06/23 02:51:16;;;;;;;;;10.50;10.00;;;;;17.47;100.00;100778.94;3724601;37;21239;-59
2021/06/23 02:53:45;;;;;;;;;12.75;12.75;;;;;17.44;100.00;100771.19;3724701;38;21044;-61
2021/06/23 02:56:12;;;;;;;;;12.25;12.00;;;;;17.38;100.00;100761.97;3724532;38;21175;-61
2021/06/23 02:58:42;;;;;;;;;16.00;14.75;;;;;17.50;100.00;100783.97;3724177;38;21067;-61
2021/06/23 03:01:13;;;;;;;;;17.25;16.00;;;;;17.53;100.00;100781.62;3724633;37;21156;-59
2021/06/23 03:03:41;;;;;;;;;13.00;13.00;;;;;17.57;100.00;100789.41;3724673;37;21146;-60
2021/06/23 03:06:08;;;;;;;;;13.25;13.25;;;;;17.54;100.00;100786.03;3724724;37;21142;-59
2021/06/23 03:08:36;;;;;;;;;13.00;13.00;;;;;17.66;100.00;100791.66;3724652;37;21131;-59
2021/06/23 03:11:05;;;;;;;;;18.50;16.50;;;;;17.74;100.00;100791.34;3724717;37;21133;-59
2021/06/23 03:13:32;;;;;;;;;14.50;13.25;;;;;17.83;100.00;100795.47;3724319;38;21057;-60
2021/06/23 03:15:59;;;;;;;;;15.50;15.50;;;;;17.86;100.00;100794.19;3724650;38;21070;-61
2021/06/23 03:18:29;;;;;;;;;13.25;13.25;;;;;17.84;100.00;100802.63;3724702;37;21102;-61
2021/06/23 03:20:55;;;;;;;;;13.75;13.50;;;;;17.90;100.00;100797.31;3724623;37;21136;-61
2021/06/23 03:23:23;;;;;;;;;14.00;14.00;;;;;17.94;100.00;100812.22;3724593;37;21126;-61
2021/06/23 03:25:50;;;;;;;;;15.25;14.50;;;;;17.99;100.00;100799.53;3724675;37;21115;-61
2021/06/23 03:28:17;;;;;;;;;16.25;16.25;;;;;17.99;100.00;100794.06;3724638;37;21018;-60
2021/06/23 03:30:44;;;;;;;;;16.00;16.00;;;;;18.12;100.00;100801.31;3724617;37;21107;-61
2021/06/23 03:33:10;;;;;;;;;14.00;13.25;;;;;18.15;100.00;100800.84;3724819;38;21091;-60
2021/06/23 03:35:37;;;;;;;;;14.00;14.00;;;;;18.21;100.00;100797.19;3724772;37;21156;-60
2021/06/23 03:38:04;;;;;;;;;18.75;18.75;;;;;18.19;100.00;100800.16;3724747;38;21100;-60
2021/06/23 03:40:31;;;;;;;;;18.00;18.00;;;;;18.25;100.00;100806.63;3724602;37;21018;-61
2021/06/23 03:42:57;;;;;;;;;46.50;39.25;;;;;18.43;100.00;100806.63;3724662;37;21040;-61
2021/06/23 03:45:24;;;;;;;;;41.25;36.50;;;;;18.49;100.00;100802.13;3724691;38;21067;-61
2021/06/23 03:47:51;;;;;;;;;22.50;22.50;;;;;18.59;100.00;100809.81;3724899;37;20991;-60
2021/06/23 03:50:18;;;;;;;;;18.00;18.00;;;;;18.76;100.00;100805.38;3724642;37;20997;-57
2021/06/23 03:52:47;;;;;;;;;17.00;16.50;;;;;18.86;100.00;100805.66;3724758;38;21069;-60
2021/06/23 03:55:20;;;;;;;;;14.50;14.50;;;;;18.92;100.00;100804.75;3725067;37;21104;-60
2021/06/23 03:57:55;;;;;;;;;13.75;13.75;;;;;18.91;100.00;100803.06;3724628;38;21081;-61
2021/06/23 04:00:30;;;;;;;;;15.50;15.50;;;;;19.08;100.00;100814.22;3724997;37;21070;-61
2021/06/23 04:02:58;;;;;;;;;15.75;15.25;;;;;19.14;100.00;100808.62;3725157;37;21061;-60
2021/06/23 04:05:26;;;;;;;;;18.00;18.00;;;;;19.28;100.00;100820.22;3724729;37;21061;-60
2021/06/23 04:07:53;;;;;;;;;17.00;17.00;;;;;19.30;100.00;100817.25;3724837;38;21076;-62
2021/06/23 04:10:19;;;;;;;;;17.25;17.00;;;;;19.40;100.00;100826.59;3724769;37;21186;-61
2021/06/23 04:12:46;;;;;;;;;19.00;18.00;;;;;19.63;100.00;100820.34;3724787;37;21065;-60
2021/06/23 04:15:15;;;;;;;;;24.50;24.50;;;;;19.90;100.00;100823.44;3724228;37;21076;-62
2021/06/23 04:17:42;;;;;;;;;22.75;22.00;;;;;19.97;100.00;100826.91;3724624;37;20939;-61
2021/06/23 04:20:10;;;;;;;;;23.00;22.00;;;;;20.06;100.00;100820.00;3724365;38;20976;-61
2021/06/23 04:22:39;;;;;;;;;19.00;18.25;;;;;20.20;100.00;100822.50;3724495;38;20950;-61
2021/06/23 04:25:09;;;;;;;;;21.50;21.00;;;;;20.34;100.00;100827.47;3724776;38;20945;-61
2021/06/23 04:27:36;;;;;;;;;24.50;22.75;;;;;20.48;100.00;100828.91;3724550;38;20949;-60
2021/06/23 04:30:08;;;;;;;;;19.00;18.50;;;;;20.57;100.00;100834.88;3724507;38;20975;-60
2021/06/23 04:32:35;;;;;;;;;21.50;21.50;;;;;20.70;100.00;100837.37;3724871;38;20954;-61
2021/06/23 04:35:05;;;;;;;;;18.00;18.00;;;;;20.67;100.00;100840.59;3725007;38;20948;-60
2021/06/23 04:37:34;;;;;;;;;16.25;16.25;;;;;20.74;100.00;100841.28;3724881;38;20940;-60
2021/06/23 04:40:02;;;;;;;;;22.50;21.50;;;;;20.86;100.00;100848.66;3724890;37;21052;-60
2021/06/23 04:42:30;;;;;;;;;19.00;19.00;;;;;20.62;100.00;100825.91;3724788;37;21016;-60
2021/06/23 04:44:58;;;;;;;;;18.25;18.25;;;;;20.71;100.00;100844.53;3724998;37;21024;-60
2021/06/23 04:47:25;;;;;;;;;17.75;17.50;;;;;20.70;100.00;100845.62;3724316;37;21023;-61
2021/06/23 04:49:54;;;;;;;;;18.75;18.50;;;;;20.82;100.00;100853.81;3724638;37;20952;-60
2021/06/23 04:52:23;;;;;;;;;23.00;22.00;;;;;20.90;100.00;100860.84;3724352;38;21010;-62
2021/06/23 04:54:51;;;;;;;;;20.25;19.00;;;;;21.04;100.00;100865.81;3724720;37;20914;-59
2021/06/23 04:57:18;;;;;;;;;26.25;24.25;;;;;21.12;100.00;100872.84;3724554;38;20906;-59
2021/06/23 04:59:44;;;;;;;;;20.25;20.00;;;;;21.17;100.00;100872.13;3724584;38;20934;-60
2021/06/23 05:02:13;;;;;;;;;22.75;21.75;;;;;21.34;100.00;100873.84;3724601;37;20912;-60
2021/06/23 05:04:40;;;;;;;;;18.75;18.75;;;;;21.25;100.00;100864.34;3724739;37;20916;-60
2021/06/23 05:07:07;;;;;;;;;18.25;18.00;;;;;21.05;100.00;100863.91;3724719;37;20899;-61
2021/06/23 05:09:38;;;;;;;;;19.00;19.00;;;;;20.98;100.00;100885.22;3724872;38;20988;-60
2021/06/23 05:12:08;;;;;;;;;19.00;18.00;;;;;21.09;100.00;100887.09;3724742;37;20965;-61
2021/06/23 05:14:35;;;;;;;;;20.25;19.00;;;;;21.24;100.00;100895.69;3724766;37;20966;-62
2021/06/23 05:17:08;;;;;;;;;20.50;19.75;;;;;21.42;100.00;100894.63;3724662;37;20984;-62
2021/06/23 05:19:38;;;;;;;;;20.00;19.75;;;;;21.63;100.00;100904.13;3724736;37;20975;-60
2021/06/23 05:22:09;;;;;;;;;20.50;19.75;;;;;21.82;100.00;100908.31;3724757;37;20952;-61
2021/06/23 05:24:40;;;;;;;;;22.00;20.25;;;;;21.97;100.00;100911.31;3724429;37;20967;-60
2021/06/23 05:27:08;;;;;;;;;15.25;15.25;;;;;21.94;100.00;100919.25;3724938;38;20862;-61
2021/06/23 05:29:35;;;;;;;;;16.25;15.50;;;;;21.83;100.00;100910.00;3724783;38;20959;-61
2021/06/23 05:32:04;;;;;;;;;15.25;15.25;;;;;21.76;100.00;100915.66;3724656;37;20934;-61
2021/06/23 05:34:30;;;;;;;;;16.75;15.00;;;;;21.87;100.00;100913.06;3724494;37;20967;-61
2021/06/23 05:36:57;;;;;;;;;17.00;17.00;;;;;21.92;100.00;100907.63;3724760;38;20957;-61
2021/06/23 05:39:25;;;;;;;;;16.25;16.25;;;;;22.04;100.00;100900.97;3724846;37;20960;-61
2021/06/23 05:41:52;;;;;;;;;16.75;16.50;;;;;22.04;100.00;100909.25;3724913;37;20928;-60
2021/06/23 05:44:19;;;;;;;;;12.75;12.75;;;;;22.15;100.00;100917.69;3724822;38;20930;-60
2021/06/23 05:46:47;;;;;;;;;18.50;18.50;;;;;22.10;100.00;100911.00;3724785;37;20929;-61
2021/06/23 05:49:13;;;;;;;;;17.75;17.75;;;;;22.35;100.00;100904.22;3724813;38;20937;-59
2021/06/23 05:51:40;;;;;;;;;16.75;16.75;;;;;22.52;100.00;100906.94;3724574;37;20911;-59
2021/06/23 05:54:06;;;;;;;;;18.00;18.00;;;;;22.64;100.00;100919.53;3724537;37;20942;-59
2021/06/23 05:56:32;;;;;;;;;14.25;14.25;;;;;22.73;100.00;100922.69;3724718;37;20824;-58
2021/06/23 05:58:59;;;;;;;;;14.00;14.00;;;;;22.64;100.00;100916.78;3724746;38;20942;-58
2021/06/23 06:01:25;;;;;;;;;15.00;15.00;;;;;22.78;100.00;100923.62;3724611;37;20894;-58
2021/06/23 06:03:52;;;;;;;;;18.25;18.25;;;;;22.81;100.00;100913.16;3724681;37;20910;-58
2021/06/23 06:06:19;;;;;;;;;17.25;17.00;;;;;22.92;100.00;100920.47;3724708;37;20890;-58
2021/06/23 06:08:45;;;;;;;;;17.75;16.75;;;;;22.99;100.00;100918.34;3724543;38;20912;-60
2021/06/23 06:11:12;;;;;;;;;16.25;15.50;;;;;23.04;100.00;100910.97;3724763;37;20923;-60
2021/06/23 06:13:38;;;;;;;;;14.75;14.75;;;;;23.18;100.00;100916.94;3724687;38;20909;-59
2021/06/23 06:16:05;;;;;;;;;15.25;15.25;;;;;23.16;100.00;100919.13;3724546;37;20900;-58
2021/06/23 06:18:32;;;;;;;;;20.50;19.00;;;;;23.26;100.00;100918.41;3724509;38;20885;-57
2021/06/23 06:20:59;;;;;;;;;16.25;16.25;;;;;23.28;98.88;100917.06;3724649;37;20876;-57
2021/06/23 06:23:29;;;;;;;;;16.00;15.25;;;;;23.25;98.93;100917.56;3724803;37;20800;-58
2021/06/23 06:25:55;;;;;;;;;15.50;15.50;;;;;23.22;98.09;100920.84;3724624;38;20870;-57
2021/06/23 06:28:23;;;;;;;;;16.75;16.25;;;;;23.18;98.96;100913.34;3724647;38;20902;-57
2021/06/23 06:30:52;;;;;;;;;15.00;15.00;;;;;23.42;98.71;100920.22;3724720;38;20859;-59
2021/06/23 06:33:18;;;;;;;;;16.75;16.00;;;;;;;;3724841;38;20897;-60
2021/06/23 06:35:46;;;;;;;;;19.25;19.00;;;;;23.57;98.30;100908.53;3724601;38;20846;-58
2021/06/23 06:38:12;;;;;;;;;16.25;16.25;;;;;23.70;97.32;100910.88;3724779;38;20871;-59
2021/06/23 06:40:40;;;;;;;;;20.25;18.25;;;;;23.76;98.54;100929.16;3724656;38;20787;-59
2021/06/23 06:43:07;;;;;;;;;17.00;15.50;;;;;23.72;96.12;100922.50;3724857;37;20855;-59
2021/06/23 06:45:33;;;;;;;;;17.50;17.00;;;;;23.91;96.71;100920.19;3724848;37;20865;-58
2021/06/23 06:48:00;;;;;;;;;18.75;16.50;;;;;24.06;96.52;100915.59;3725032;38;20793;-58
2021/06/23 06:50:27;;;;;;;;;20.75;20.25;;;;;24.15;95.31;100913.19;3724992;37;20828;-61
2021/06/23 06:52:54;;;;;;;;;17.00;16.25;;;;;24.41;95.97;100912.31;3725493;38;20863;-58
2021/06/23 06:55:24;;;;;;;;;16.25;15.00;;;;;24.56;94.67;100914.31;3735662;37;20829;-57
2021/06/23 06:57:56;;;;;;;;;18.00;18.00;;;;;24.58;93.20;100911.28;3736211;38;20827;-58
2021/06/23 07:00:25;;;;;;;;;17.25;17.25;;;;;24.66;92.50;100911.59;3733552;37;20914;-59
2021/06/23 07:02:55;;;;;;;;;19.00;18.00;;;;;24.69;92.68;100902.75;3725339;37;20823;-58
2021/06/23 07:05:25;;;;;;;;;19.25;19.00;;;;;24.80;93.25;100902.81;3725182;37;20816;-59
2021/06/23 07:07:53;;;;;;;;;17.75;15.50;;;;;24.98;92.99;100910.66;3725939;38;20733;-58
2021/06/23 07:10:20;;;;;;;;;18.75;18.75;;;;;24.84;90.57;100907.53;3725476;38;20835;-59
2021/06/23 07:12:47;;;;;;;;;21.00;20.25;;;;;24.91;91.64;100908.13;3727470;38;20733;-58
2021/06/23 07:15:15;;;;;;;;;19.25;19.00;;;;;25.06;92.42;100915.69;3725095;38;20759;-59
2021/06/23 07:17:42;;;;;;;;;20.00;20.00;;;;;25.12;92.23;100911.81;3724084;37;20719;-58
2021/06/23 07:20:10;;;;;;;;;20.75;20.25;;;;;25.41;92.11;100912.19;3724415;37;20733;-58
2021/06/23 07:22:37;;;;;;;;;23.50;22.50;;;;;25.50;90.44;100904.16;3724041;38;20799;-59
2021/06/23 07:25:04;;;;;;;;;18.50;17.75;;;;;25.66;91.65;100903.12;3724638;38;20718;-59
2021/06/23 07:27:34;;;;;;;;;21.00;20.25;;;;;25.81;90.23;100911.44;3724407;37;20681;-59
2021/06/23 07:30:05;;;;;;;;;20.50;19.75;;;;;25.74;88.53;100905.34;3724569;37;20720;-59
2021/06/23 07:32:46;;;;;;;;;21.75;21.75;;;;;25.69;88.57;100902.56;3724652;38;20697;-58
2021/06/23 07:37:58;;;;;;;;;19.00;19.00;;;;;25.65;87.23;100898.69;3724697;38;20663;-58
2021/06/23 07:43:19;;;;;;;;;19.00;18.25;;;;;25.69;86.88;100906.16;3724849;37;20683;-58
2021/06/23 07:45:53;;;;;;;;;15.50;15.00;;;;;25.64;85.47;100903.38;3724729;37;20697;-58
2021/06/23 07:48:22;;;;;;;;;19.50;19.50;;;;;25.74;86.65;100905.34;3724645;37;20763;-57
2021/06/23 07:50:54;;;;;;;;;19.00;18.75;;;;;25.96;87.77;100897.59;3724534;38;20679;-57
2021/06/23 07:53:28;;;;;;;;;17.25;17.25;;;;;26.09;86.67;100906.44;3724559;38;20762;-57
2021/06/23 07:56:23;;;;;;;;;17.25;14.25;;;;;26.26;87.69;100898.66;3724831;37;20775;-58
2021/06/23 08:12:54;;;;;;;;;16.75;16.75;;;;;26.26;82.80;100901.44;3724860;37;20720;-57
2021/06/23 08:15:22;;;;;;;;;16.50;16.50;;;;;26.21;84.24;100901.44;3724906;38;20793;-56
2021/06/23 08:17:48;;;;;;;;;16.00;15.75;;;;;26.34;84.35;100890.63;3724761;37;20721;-57
2021/06/23 08:20:15;;;;;;;;;17.00;16.25;;;;;26.38;84.78;100890.91;3724656;37;20750;-57
2021/06/23 08:22:42;;;;;;;;;14.00;14.00;;;;;26.44;83.08;100888.97;3724738;38;20722;-57
2021/06/23 08:25:09;;;;;;;;;16.75;16.00;;;;;26.58;81.90;100907.50;3724660;37;20728;-57
2021/06/23 08:27:36;;;;;;;;;16.50;15.75;;;;;26.48;80.50;100902.00;3724646;38;20637;-57
2021/06/23 08:30:04;;;;;;;;;15.25;15.25;;;;;26.28;82.98;100900.03;3724589;37;20728;-56
2021/06/23 08:32:30;;;;;;;;;16.00;16.00;;;;;26.44;83.90;100908.37;3724574;38;20715;-57
2021/06/23 08:34:59;;;;;;;;;14.75;13.00;;;;;26.66;82.50;100893.03;3724790;38;20715;-56
2021/06/23 08:37:27;;;;;;;;;15.50;15.00;;;;;26.73;81.68;100906.62;3724703;37;20735;-57
2021/06/23 08:39:53;;;;;;;;;14.75;14.75;;;;;26.59;82.48;100900.81;3724636;38;20620;-57
2021/06/23 08:42:23;;;;;;;;;16.00;14.25;;;;;26.69;83.05;100900.81;3724116;38;20695;-57
2021/06/23 08:44:50;;;;;;;;;16.25;15.75;;;;;26.93;81.96;100906.56;3724023;38;20602;-56
2021/06/23 08:47:17;;;;;;;;;17.00;17.00;;;;;27.07;81.79;100904.00;3724188;38;20589;-57
2021/06/23 08:49:48;;;;;;;;;17.25;17.00;;;;;26.89;82.28;100905.47;3724244;38;20608;-57
2021/06/23 08:52:15;;;;;;;;;19.25;18.25;;;;;26.94;82.29;100904.63;3724268;37;20588;-57
2021/06/23 08:54:43;;;;;;;;;16.25;16.00;;;;;26.98;82.28;100886.28;3724009;37;20611;-58
2021/06/23 08:57:10;;;;;;;;;17.50;15.75;;;;;27.05;81.72;100897.91;3724653;37;20592;-57
2021/06/23 08:59:42;;;;;;;;;18.00;17.25;;;;;26.97;81.29;100891.03;3724616;37;20682;-58
2021/06/23 09:02:15;;;;;;;;;16.75;16.75;;;;;26.96;81.55;100894.09;3724318;38;20602;-58
2021/06/23 09:04:59;;;;;;;;;16.75;16.25;;;;;27.16;81.33;100890.34;3724250;37;20669;-58
2021/06/23 09:07:43;;;;;;;;;16.25;16.25;;;;;27.29;81.18;100890.56;3724690;37;20682;-58
2021/06/23 09:10:37;;;;;;;;;14.50;14.50;;;;;27.28;81.10;100894.44;3723939;38;20586;-58
2021/06/23 09:13:21;;;;;;;;;16.50;14.75;;;;;27.32;79.52;100887.19;3723744;38;20662;-57
2021/06/23 09:15:51;;;;;;;;;17.00;17.00;;;;;27.32;78.98;100886.38;3724105;37;20661;-57
2021/06/23 09:18:24;;;;;;;;;15.75;15.00;;;;;27.34;77.52;100865.50;3724142;37;20568;-57
2021/06/23 09:21:18;;;;;;;;;15.25;15.00;;;;;27.56;77.84;100878.13;3724260;37;20714;-57
2021/06/23 09:23:49;;;;;;;;;16.00;16.00;;;;;27.68;78.21;100876.69;3724718;37;20635;-58
2021/06/23 09:26:21;;;;;;;;;15.50;15.50;;;;;27.84;77.92;100899.66;3724635;38;20658;-59
2021/06/23 09:29:15;;;;;;;;;18.00;16.75;;;;;27.83;75.37;100891.59;3724702;37;20566;-57
2021/06/23 09:32:00;;;;;;;;;18.50;18.00;;;;;27.88;76.11;100897.94;3724629;37;20624;-58
2021/06/23 09:34:35;;;;;;;;;18.00;16.75;;;;;27.90;75.35;100890.16;3724737;38;20559;-58
2021/06/23 09:37:31;;;;;;;;;17.50;16.75;;;;;28.02;75.72;100889.78;3724612;37;20620;-58
2021/06/23 09:40:16;;;;;;;;;16.50;16.00;;;;;28.12;75.01;100886.03;3724684;37;20543;-58
2021/06/23 09:42:56;;;;;;;;;17.00;15.50;;;;;28.14;75.01;100892.97;3724616;37;20556;-59
2021/06/23 09:45:24;;;;;;;;;10.25;9.75;;;;;28.12;73.09;100891.59;3724750;38;20601;-58
2021/06/23 09:48:01;;;;;;;;;18.75;17.25;;;;;28.32;72.84;100886.72;3724124;38;20516;-58
2021/06/23 09:50:30;;;;;;;;;17.25;14.75;;;;;28.61;73.21;100885.81;3724062;37;20598;-58
2021/06/23 09:53:02;;;;;;;;;13.25;13.25;;;;;28.73;71.35;100875.09;3724140;37;20621;-58
2021/06/23 09:55:47;;;;;;;;;15.00;14.50;;;;;28.59;72.32;100888.94;3724129;37;20582;-58
2021/06/23 09:58:30;;;;;;;;;11.50;11.50;;;;;28.71;72.22;100884.87;3724161;37;20602;-59
2021/06/23 10:01:11;;;;;;;;;13.00;12.25;;;;;28.66;71.91;100881.03;3724124;37;20604;-58
2021/06/23 10:04:08;;;;;;;;;12.25;11.50;;;;;28.72;71.80;100883.75;3724271;37;20593;-58
2021/06/23 10:06:40;;;;;;;;;11.50;10.25;;;;;28.83;70.38;100883.38;3724711;37;20595;-58
2021/06/23 10:09:27;;;;;;;;;13.00;12.00;;;;;28.66;69.83;100877.41;3724680;37;20587;-58
2021/06/23 10:12:08;;;;;;;;;12.25;11.25;;;;;28.66;71.35;100881.03;3724536;37;20597;-59
2021/06/23 10:14:42;;;;;;;;;16.25;13.75;;;;;28.66;72.38;100877.41;3724711;38;20562;-58
2021/06/23 10:17:10;;;;;;;;;12.50;11.75;;;;;28.67;71.89;100879.91;3724653;37;20587;-59
2021/06/23 10:19:37;;;;;;;;;12.00;12.00;;;;;28.66;71.87;100871.84;3724826;38;20651;-59
2021/06/23 10:22:10;;;;;;;;;12.75;12.75;;;;;28.59;70.24;100871.41;3724656;37;20545;-59
2021/06/23 10:24:38;;;;;;;;;13.75;12.50;;;;;28.57;71.36;100874.47;3724720;37;20475;-60
2021/06/23 10:27:10;;;;;;;;;14.75;14.00;;;;;28.77;71.16;100862.25;3724737;37;20561;-59
2021/06/23 10:29:38;;;;;;;;;13.75;13.25;;;;;28.96;71.90;100859.53;3724757;37;20535;-59
2021/06/23 10:32:07;;;;;;;;;13.25;12.50;;;;;29.09;71.03;100855.19;3724607;38;20486;-58
2021/06/23 10:34:34;;;;;;;;;17.25;16.50;;;;;29.17;69.41;100865.62;3724622;37;20539;-60
2021/06/23 10:37:01;;;;;;;;;15.25;15.25;;;;;29.02;70.63;100863.91;3724724;38;20541;-58
2021/06/23 10:39:34;;;;;;;;;13.00;12.00;;;;;29.26;70.78;100866.63;3724665;37;20560;-59
2021/06/23 10:42:04;;;;;;;;;16.00;15.50;;;;;29.13;70.55;100859.81;3724614;37;20524;-60
2021/06/23 10:44:36;;;;;;;;;14.00;13.75;;;;;29.10;69.87;100868.00;3724568;37;20545;-59
2021/06/23 10:47:08;;;;;;;;;14.00;13.00;;;;;29.13;69.94;100859.81;3724725;38;20549;-58
2021/06/23 10:50:04;;;;;;;;;16.25;15.50;;;;;29.41;69.78;100862.78;3724682;37;20544;-57
2021/06/23 10:52:42;;;;;;;;;12.75;12.00;;;;;29.55;69.42;100866.50;3724728;38;20522;-57
2021/06/23 10:55:37;;;;;;;;;12.75;11.50;;;;;29.30;69.98;100868.50;3724396;37;20526;-58
2021/06/23 10:58:09;;;;;;;;;10.00;8.75;;;;;29.22;71.31;100868.34;3724682;37;20410;-57
2021/06/23 11:00:46;;;;;;;;;12.00;12.00;;;;;29.45;70.49;100869.44;3724594;37;20458;-59
2021/06/23 11:03:17;;;;;;;;;14.50;14.25;;;;;29.48;69.09;100875.25;3724667;38;20535;-58
2021/06/23 11:05:54;;;;;;;;;13.25;12.50;;;;;29.45;69.68;100873.06;3724703;37;20722;-57
2021/06/23 11:08:33;;;;;;;;;16.00;14.75;;;;;29.43;70.04;100855.81;3724463;37;20502;-59
2021/06/23 11:11:03;;;;;;;;;206.00;200.25;;;;;29.77;68.91;100861.09;3724082;37;20507;-59
2021/06/23 11:13:39;;;;;;;;;13.75;13.75;;;;;30.00;67.73;100852.94;3723957;38;17776;-59
2021/06/23 11:16:31;;;;;;;;;13.50;13.50;;;;;29.90;67.13;100865.91;3724154;38;20403;-59
2021/06/23 11:19:10;;;;;;;;;12.00;12.00;;;;;29.88;67.98;100858.97;3723946;38;20407;-58
2021/06/23 11:21:38;;;;;;;;;16.75;14.25;;;;;30.02;67.88;100854.28;3724542;37;20473;-59
2021/06/23 11:24:20;;;;;;;;;14.25;14.00;;;;;29.74;68.46;100855.28;3724628;37;20369;-59
2021/06/23 11:26:52;;;;;;;;;13.25;13.25;;;;;29.63;69.80;100849.09;3724547;37;20507;-59
2021/06/23 11:29:27;;;;;;;;;11.00;10.75;;;;;29.73;68.47;100856.44;3724294;38;20499;-59
2021/06/23 11:32:02;;;;;;;;;15.25;15.25;;;;;29.57;67.60;100858.66;3724290;38;20400;-57
2021/06/23 11:34:55;;;;;;;;;12.00;12.00;;;;;29.58;67.87;100847.19;3724492;37;20468;-58
2021/06/23 11:37:25;;;;;;;;;14.75;14.00;;;;;29.67;66.83;100844.53;3724734;37;20459;-59
2021/06/23 11:40:07;;;;;;;;;16.25;15.25;;;;;29.54;68.48;100837.78;3724646;37;20454;-59
2021/06/23 11:42:41;;;;;;;;;11.50;11.50;;;;;29.63;68.89;100857.44;3724633;37;20457;-60